Port Barre, Louisiana
Current Conditions -  °F | °C
As of 8:15 AM on Friday 19 Dec 2014 (Local Time) from KOPL Reporting Station
Overcast Overcast  
Wind Chill: 12°   Ceiling: 200
Heat Index: 12°   Visibility: 10mi
Dew Point: 11°   Wind: 8mph
Humidity: 97%   Direction: 70°ENE
Pressure: 30.09"   Gusts: NA
Location:  30.56°N, 91.95°W
Report Text: KOPL 191415Z AUTO 07007KT 10SM OVC002 12/11 A3009 RMK AO2 T01160112
Loading
Personal Weather Stations






























Interactive Weather Map New forecast layout! Learn more

10-Day Weather Forecast

Advertisements
Track Severe Weather on mobile